Antananarivo, Madagascar
Current Conditions -  °F | °C
As of 2:00 AM on Sunday 21 Dec 2014 (Local Time) from FMMI Reporting Station
Broken Clouds Broken Clouds  
Wind Chill: 19°   Ceiling: 2000
Heat Index: 19°   Visibility: 6mi
Dew Point: 19°   Wind: 1mph
Humidity: 100%   Direction: NA
Pressure: 30.06"   Gusts: NA
Location:  18.89°S, 47.51°E
Report Text: FMMI 202300Z VRB01KT 9999 FEW010 BKN020 19/19 Q1018 NOSIG
Loading
Personal Weather Stations






























Interactive Weather Map New forecast layout! Learn more

10-Day Weather Forecast

Advertisements
Track Severe Weather on mobile